Terminal Aerodrome Forecast
Issued by NWS Cleveland, OH

Home | Current Version | Previous Version | Text Only | Print | Product List | Glossary Off
Versions: 1 2 3 4 5 6 7 8 9 10 11 12 13 14 15 16 17 18 19 20 21 22 23 24 25 26

000
FTUS41 KCLE 152103 AAB
TAFCLE
TAF AMD
KCLE 152103Z 1521/1624 36010KT P6SM BKN080
     FM160000 36004KT P6SM SCT250
      TEMPO 1609/1613 5SM BR
     FM161700 02007KT P6SM SCT040=

USA.gov is the U.S. government's official web portal to all federal, state and local government web resources and services.